createdAt,value
2022-08-10T00:02:03.421Z,100866.09
2022-08-10T00:05:08.154Z,100872.42
2022-08-10T00:08:11.371Z,100869.92
2022-08-10T00:11:26.211Z,100866.98
2022-08-10T00:14:29.493Z,100867.77
2022-08-10T00:17:35.911Z,100866.52
2022-08-10T00:20:38.918Z,100868.17
2022-08-10T00:23:41.890Z,100866.13
2022-08-10T00:27:58.981Z,100862.89
2022-08-10T00:30:09.012Z,100866.06
2022-08-10T00:33:12.205Z,100866.27
2022-08-10T00:36:15.472Z,100865.46
2022-08-10T00:39:18.489Z,100867.79
2022-08-10T00:42:21.516Z,100870.35
2022-08-10T00:45:24.494Z,100865.96
2022-08-10T00:48:31.963Z,100866.98
2022-08-10T00:51:48.213Z,100862.23
2022-08-10T00:54:53.669Z,100860.18
2022-08-10T00:57:57.053Z,100861.95
2022-08-10T01:01:00.052Z,100858.75
2022-08-10T01:04:54.366Z,100857.48
2022-08-10T01:08:03.579Z,100861.08
2022-08-10T01:12:39.223Z,100860.05
2022-08-10T01:15:04.171Z,100860.88
2022-08-10T01:18:18.296Z,100867.20
2022-08-10T01:21:36.516Z,100861.67
2022-08-10T01:25:03.952Z,100860.13
2022-08-10T01:28:52.053Z,100862.44
2022-08-10T01:32:02.430Z,100859.94
2022-08-10T01:35:21.678Z,100861.48
2022-08-10T01:38:39.241Z,100863.60
2022-08-10T01:41:46.435Z,100858.17
2022-08-10T01:44:55.417Z,100857.09
2022-08-10T01:48:20.085Z,100853.42
2022-08-10T01:51:53.044Z,100852.92
2022-08-10T01:54:58.277Z,100852.59
2022-08-10T01:58:04.887Z,100854.64
2022-08-10T02:01:11.276Z,100856.13
2022-08-10T02:04:22.888Z,100858.45
2022-08-10T02:07:29.247Z,100854.30
2022-08-10T02:10:35.527Z,100854.92
2022-08-10T02:13:40.247Z,100852.93
2022-08-10T02:16:46.353Z,100851.48
2022-08-10T02:19:51.798Z,100849.52
2022-08-10T02:23:06.666Z,100848.50
2022-08-10T02:26:12.762Z,100841.59
2022-08-10T02:29:17.730Z,100842.63
2022-08-10T02:32:36.498Z,100842.98
2022-08-10T02:35:54.690Z,100840.17
2022-08-10T02:39:02.193Z,100843.64
2022-08-10T02:45:22.694Z,100846.39
2022-08-10T02:45:46.980Z,100851.01
2022-08-10T02:49:00.144Z,100850.67
2022-08-10T02:52:08.909Z,100851.86
2022-08-10T02:55:27.092Z,100850.63
2022-08-10T02:58:48.258Z,100850.06
2022-08-10T03:01:56.136Z,100852.41
2022-08-10T03:05:19.621Z,100849.98
2022-08-10T03:08:27.742Z,100851.95
2022-08-10T03:12:36.966Z,100851.73
2022-08-10T03:15:01.038Z,100856.24
2022-08-10T03:18:05.852Z,100853.13
2022-08-10T03:21:11.960Z,100856.20
2022-08-10T03:24:30.238Z,100853.17
2022-08-10T03:27:37.160Z,100850.30
2022-08-10T03:30:40.101Z,100850.92
2022-08-10T03:33:45.106Z,100849.47
2022-08-10T03:36:48.588Z,100847.75
2022-08-10T03:39:51.568Z,100848.79
2022-08-10T03:42:57.743Z,100855.63
2022-08-10T03:46:06.528Z,100855.14
2022-08-10T03:49:11.586Z,100858.64
2022-08-10T03:52:17.366Z,100863.06
2022-08-10T03:56:27.166Z,100862.48
2022-08-10T03:58:44.680Z,100858.52
2022-08-10T04:02:52.643Z,100865.01
2022-08-10T04:05:17.790Z,100860.98
2022-08-10T04:08:20.912Z,100863.73
2022-08-10T04:11:23.790Z,100869.98
2022-08-10T04:14:35.578Z,100869.77
2022-08-10T04:18:03.876Z,100873.16
2022-08-10T04:21:14.997Z,100878.73
2022-08-10T04:24:27.146Z,100879.88
2022-08-10T04:27:33.324Z,100880.13
2022-08-10T04:30:37.931Z,100879.32
2022-08-10T04:33:49.653Z,100881.30
2022-08-10T04:36:57.288Z,100883.85
2022-08-10T04:40:01.686Z,100881.08
2022-08-10T04:43:12.495Z,100882.26
2022-08-10T04:46:42.980Z,100882.06
2022-08-10T04:49:56.206Z,100881.34
2022-08-10T04:53:00.240Z,100880.30
2022-08-10T04:56:04.237Z,100886.17
2022-08-10T04:59:09.550Z,100883.42
2022-08-10T05:02:29.663Z,100884.98
2022-08-10T05:05:35.663Z,100891.80
2022-08-10T05:08:38.840Z,100891.13
2022-08-10T05:11:41.918Z,100895.23
2022-08-10T05:14:45.014Z,100897.84
2022-08-10T05:18:04.611Z,100896.79
2022-08-10T05:21:11.259Z,100894.35
2022-08-10T05:24:34.336Z,100895.56
2022-08-10T05:27:38.128Z,100899.12
2022-08-10T05:30:41.404Z,100903.44
2022-08-10T05:33:44.483Z,100903.19
2022-08-10T05:36:48.584Z,100905.30
2022-08-10T05:39:53.560Z,100908.39
2022-08-10T05:42:56.878Z,100909.86
2022-08-10T05:46:17.626Z,100915.96
2022-08-10T05:49:24.113Z,100918.26
2022-08-10T05:52:27.419Z,100917.33
2022-08-10T05:55:33.733Z,100917.62
2022-08-10T05:58:37.319Z,100921.32
2022-08-10T06:01:44.613Z,100923.50
2022-08-10T06:05:14.320Z,100924.73
2022-08-10T06:08:20.533Z,100930.08
2022-08-10T06:12:23.692Z,100928.48
2022-08-10T06:15:05.108Z,100932.01
2022-08-10T06:18:13.346Z,100935.33
2022-08-10T06:21:17.432Z,100938.70
2022-08-10T06:24:25.453Z,100940.55
2022-08-10T06:27:35.352Z,100938.27
2022-08-10T06:30:39.350Z,100942.64
2022-08-10T06:33:46.023Z,100943.66
2022-08-10T06:36:50.615Z,100944.79
2022-08-10T06:39:54.526Z,100945.52
2022-08-10T06:43:01.427Z,100945.62
2022-08-10T06:46:09.563Z,100944.00
2022-08-10T06:49:16.423Z,100945.66
2022-08-10T06:52:22.384Z,100945.00
2022-08-10T06:55:27.349Z,100945.68
2022-08-10T06:59:37.790Z,100944.64
2022-08-10T07:03:06.979Z,100943.63
2022-08-10T07:06:14.790Z,100943.16
2022-08-10T07:09:19.830Z,100944.92
2022-08-10T07:12:24.190Z,100943.55
2022-08-10T07:15:59.416Z,100945.77
2022-08-10T07:18:52.421Z,100945.23
2022-08-10T07:21:57.951Z,100940.63
2022-08-10T07:25:02.645Z,100942.86
2022-08-10T07:28:10.753Z,100944.07
2022-08-10T07:31:33.072Z,100945.39
2022-08-10T07:34:42.928Z,100941.48
2022-08-10T07:37:49.957Z,100942.72
2022-08-10T07:40:54.670Z,100944.60
2022-08-10T07:44:03.555Z,100939.78
2022-08-10T07:47:11.869Z,100940.67
2022-08-10T07:50:19.357Z,100941.00
2022-08-10T07:53:26.547Z,100943.68
2022-08-10T07:56:48.353Z,100939.50
2022-08-10T07:59:57.112Z,100946.92
2022-08-10T08:03:03.278Z,100951.55
2022-08-10T08:06:11.590Z,100954.54
2022-08-10T08:09:15.872Z,100950.89
2022-08-10T08:12:19.737Z,100953.45
2022-08-10T08:16:16.719Z,100953.52
2022-08-10T08:19:16.456Z,100948.39
2022-08-10T08:24:10.319Z,100951.95
2022-08-10T08:25:39.683Z,100952.05
2022-08-10T08:28:45.985Z,100949.77
2022-08-10T08:31:59.102Z,100949.33
2022-08-10T08:35:09.506Z,100951.34
2022-08-10T08:38:32.122Z,100948.60
2022-08-10T08:41:52.987Z,100952.36
2022-08-10T08:45:22.058Z,100949.94
2022-08-10T08:48:53.488Z,100948.83
2022-08-10T08:52:32.116Z,100948.27
2022-08-10T08:56:06.120Z,100946.73
2022-08-10T08:59:22.122Z,100946.05
2022-08-10T09:03:00.089Z,100944.50
2022-08-10T09:06:23.623Z,100937.60
2022-08-10T09:09:52.794Z,100937.26
2022-08-10T09:13:19.402Z,100938.25
2022-08-10T09:16:37.933Z,100937.99
2022-08-10T09:19:43.982Z,100935.44
2022-08-10T09:23:12.528Z,100933.43
2022-08-10T09:26:21.642Z,100930.31
2022-08-10T09:29:43.146Z,100923.55
2022-08-10T09:36:22.448Z,100921.81
2022-08-10T09:37:01.437Z,100920.92
2022-08-10T09:41:00.608Z,100921.13
2022-08-10T09:44:13.997Z,100917.25
2022-08-10T09:48:01.423Z,100913.89
2022-08-10T09:51:45.547Z,100913.75
2022-08-10T09:55:21.211Z,100913.33
2022-08-10T09:59:47.341Z,100910.57
2022-08-10T10:02:43.084Z,100908.92
2022-08-10T10:06:01.716Z,100913.94
2022-08-10T10:09:26.927Z,100916.16
2022-08-10T10:12:37.028Z,100906.89
2022-08-10T10:16:03.643Z,100904.34
2022-08-10T10:19:16.030Z,100904.05
2022-08-10T10:22:27.905Z,100902.78
2022-08-10T10:26:03.586Z,100898.91
2022-08-10T10:29:56.200Z,100892.70
2022-08-10T10:33:14.284Z,100890.89
2022-08-10T10:36:19.771Z,100884.81
2022-08-10T10:39:26.553Z,100885.09
2022-08-10T10:42:49.686Z,100880.61
2022-08-10T10:45:58.670Z,100882.16
2022-08-10T10:49:22.012Z,100875.94
2022-08-10T10:52:34.291Z,100875.89
2022-08-10T10:56:13.348Z,100879.67
2022-08-10T10:59:56.290Z,100870.16
2022-08-10T11:03:08.566Z,100870.41
2022-08-10T11:06:47.733Z,100867.73
2022-08-10T11:10:05.076Z,100859.43
2022-08-10T11:14:25.481Z,100856.68
2022-08-10T11:17:27.689Z,100859.26
2022-08-10T11:20:47.294Z,100857.27
2022-08-10T11:24:47.863Z,100855.86
2022-08-10T11:28:08.046Z,100855.31
2022-08-10T11:31:20.132Z,100848.80
2022-08-10T11:34:47.439Z,100842.75
2022-08-10T11:38:31.084Z,100844.17
2022-08-10T11:42:08.735Z,100838.17
2022-08-10T11:45:25.813Z,100841.88
2022-08-10T11:48:54.441Z,100839.00
2022-08-10T11:52:11.260Z,100842.57
2022-08-10T11:55:26.798Z,100837.76
2022-08-10T11:58:53.733Z,100831.69
2022-08-10T12:01:58.343Z,100829.09
2022-08-10T12:05:17.075Z,100828.20
2022-08-10T12:10:03.616Z,100827.75
2022-08-10T12:11:47.782Z,100826.70
2022-08-10T12:15:00.987Z,100822.73
2022-08-10T12:18:12.965Z,100822.54
2022-08-10T12:21:24.618Z,100824.91
2022-08-10T12:24:38.261Z,100826.48
2022-08-10T12:27:52.480Z,100822.75
2022-08-10T12:30:59.399Z,100822.69
2022-08-10T12:34:17.521Z,100815.95
2022-08-10T12:37:33.432Z,100818.16
2022-08-10T12:41:04.952Z,100819.39
2022-08-10T12:44:41.809Z,100811.70
2022-08-10T12:48:00.766Z,100808.04
2022-08-10T12:51:30.823Z,100804.76
2022-08-10T12:54:38.620Z,100796.14
2022-08-10T12:57:42.499Z,100794.83
2022-08-10T13:01:12.761Z,100788.06
2022-08-10T13:04:21.232Z,100782.87
2022-08-10T13:08:24.257Z,100774.27
2022-08-10T13:11:24.409Z,100773.38
2022-08-10T13:14:38.599Z,100769.12
2022-08-10T13:17:47.034Z,100769.09
2022-08-10T13:21:01.660Z,100770.34
2022-08-10T13:24:15.215Z,100764.69
2022-08-10T13:27:26.349Z,100768.20
2022-08-10T13:30:35.637Z,100766.42
2022-08-10T13:34:39.245Z,100768.16
2022-08-10T13:37:15.924Z,100768.73
2022-08-10T13:40:20.883Z,100767.52
2022-08-10T13:43:26.305Z,100769.09
2022-08-10T13:46:31.495Z,100769.31
2022-08-10T13:49:46.636Z,100758.27
2022-08-10T13:52:56.770Z,100758.07
2022-08-10T13:56:01.840Z,100753.13
2022-08-10T13:59:09.853Z,100745.95
2022-08-10T14:02:16.707Z,100745.77
2022-08-10T14:05:26.981Z,100739.11
2022-08-10T14:08:32.521Z,100738.89
2022-08-10T14:11:38.552Z,100737.59
2022-08-10T14:14:43.269Z,100729.61
2022-08-10T14:17:54.119Z,100727.17
2022-08-10T14:20:58.940Z,100725.90
2022-08-10T14:24:02.211Z,100721.63
2022-08-10T14:27:09.067Z,100721.69
2022-08-10T14:30:17.366Z,100717.80
2022-08-10T14:33:24.124Z,100717.55
2022-08-10T14:36:44.492Z,100708.55
2022-08-10T14:40:10.776Z,100705.66
2022-08-10T14:43:28.417Z,100703.82
2022-08-10T14:46:34.686Z,100710.80
2022-08-10T14:49:57.489Z,100705.70
2022-08-10T14:53:20.123Z,100703.38
2022-08-10T14:56:32.720Z,100699.71
2022-08-10T15:00:24.413Z,100700.98
2022-08-10T15:03:03.273Z,100698.02
2022-08-10T15:06:18.280Z,100694.83
2022-08-10T15:09:59.563Z,100690.05
2022-08-10T15:12:58.709Z,100696.77
2022-08-10T15:16:13.570Z,100690.08
2022-08-10T15:20:03.536Z,100693.80
2022-08-10T15:22:49.942Z,100689.47
2022-08-10T15:25:57.943Z,100689.41
2022-08-10T15:29:22.271Z,100687.48
2022-08-10T15:32:57.817Z,100691.14
2022-08-10T15:36:20.580Z,100680.60
2022-08-10T15:40:22.612Z,100679.88
2022-08-10T15:43:28.964Z,100678.84
2022-08-10T15:46:49.376Z,100678.65
2022-08-10T15:50:08.927Z,100678.48
2022-08-10T15:53:16.865Z,100670.69
2022-08-10T15:56:51.100Z,100665.39
2022-08-10T16:00:23.950Z,100672.79
2022-08-10T16:03:37.347Z,100667.55
2022-08-10T16:06:45.522Z,100660.61
2022-08-10T16:10:22.508Z,100661.73
2022-08-10T16:13:50.418Z,100662.16
2022-08-10T16:16:50.097Z,100661.93
2022-08-10T16:19:57.411Z,100663.50
2022-08-10T16:23:07.712Z,100663.69
2022-08-10T16:26:17.416Z,100666.51
2022-08-10T16:29:25.559Z,100663.07
2022-08-10T16:32:33.250Z,100662.27
2022-08-10T16:35:37.870Z,100663.55
2022-08-10T16:38:48.503Z,100665.54
2022-08-10T16:42:03.639Z,100658.70
2022-08-10T16:45:13.797Z,100654.14
2022-08-10T16:48:48.664Z,100656.02
2022-08-10T16:51:48.948Z,100655.05
2022-08-10T16:54:54.234Z,100652.23
2022-08-10T16:58:01.492Z,100655.34
2022-08-10T17:01:12.407Z,100651.00
2022-08-10T17:04:17.698Z,100650.70
2022-08-10T17:07:30.803Z,100650.98
2022-08-10T17:10:36.184Z,100648.91
2022-08-10T17:13:39.853Z,100648.64
2022-08-10T17:16:45.892Z,100645.45
2022-08-10T17:19:51.064Z,100647.98
2022-08-10T17:22:58.135Z,100643.60
2022-08-10T17:26:06.219Z,100643.85
2022-08-10T17:29:59.010Z,100644.90
2022-08-10T17:32:54.222Z,100641.80
2022-08-10T17:36:04.338Z,100645.97
2022-08-10T17:39:13.110Z,100641.80
2022-08-10T17:42:21.765Z,100644.27
2022-08-10T17:45:47.748Z,100649.66
2022-08-10T17:48:53.940Z,100646.46
2022-08-10T17:51:59.313Z,100648.35
2022-08-10T17:55:07.346Z,100646.83
2022-08-10T17:58:16.248Z,100649.41
2022-08-10T18:01:40.446Z,100650.66
2022-08-10T18:04:51.044Z,100651.79
2022-08-10T18:07:56.411Z,100650.48
2022-08-10T18:11:05.991Z,100653.74
2022-08-10T18:14:16.619Z,100653.41
2022-08-10T18:17:33.607Z,100654.62
2022-08-10T18:20:42.991Z,100655.59
2022-08-10T18:23:51.769Z,100656.11
2022-08-10T18:26:58.398Z,100655.11
2022-08-10T18:30:07.122Z,100659.63
2022-08-10T18:33:12.381Z,100661.98
2022-08-10T18:36:18.467Z,100666.53
2022-08-10T18:39:27.822Z,100671.90
2022-08-10T18:42:34.041Z,100676.33
2022-08-10T18:45:46.014Z,100676.10
2022-08-10T18:49:13.199Z,100679.52
2022-08-10T18:52:20.236Z,100677.96
2022-08-10T18:55:39.637Z,100677.74
2022-08-10T18:59:14.242Z,100679.46
2022-08-10T19:02:40.247Z,100679.09
2022-08-10T19:06:12.998Z,100682.47
2022-08-10T19:09:46.459Z,100683.55
2022-08-10T19:13:10.511Z,100678.13
2022-08-10T19:16:43.818Z,100679.69
2022-08-10T19:20:06.087Z,100683.26
2022-08-10T19:23:35.158Z,100682.98
2022-08-10T19:26:50.206Z,100690.07
2022-08-10T19:30:13.043Z,100689.19
2022-08-10T19:34:11.869Z,100687.61
2022-08-10T19:37:32.348Z,100690.48
2022-08-10T19:40:58.347Z,100687.68
2022-08-10T19:44:37.236Z,100682.14
2022-08-10T19:47:58.831Z,100683.03
2022-08-10T19:51:48.694Z,100685.31
2022-08-10T19:54:59.991Z,100691.08
2022-08-10T19:58:36.684Z,100686.72
2022-08-10T20:01:55.194Z,100687.86
2022-08-10T20:05:16.094Z,100688.04
2022-08-10T20:08:28.342Z,100691.27
2022-08-10T20:11:45.791Z,100692.33
2022-08-10T20:15:08.141Z,100692.18
2022-08-10T20:18:27.167Z,100691.02
2022-08-10T20:21:45.828Z,100688.82
2022-08-10T20:25:11.448Z,100691.27
2022-08-10T20:28:26.545Z,100692.20
2022-08-10T20:31:53.512Z,100691.45
2022-08-10T20:35:07.797Z,100686.55
2022-08-10T20:38:29.073Z,100687.33
2022-08-10T20:41:49.036Z,100683.10
2022-08-10T20:45:09.091Z,100684.34
2022-08-10T20:48:33.340Z,100688.14
2022-08-10T20:51:58.136Z,100688.02
2022-08-10T20:55:09.922Z,100681.84
2022-08-10T20:58:43.934Z,100686.50
2022-08-10T21:02:19.873Z,100687.67
2022-08-10T21:05:55.123Z,100689.52
2022-08-10T21:09:15.548Z,100688.43
2022-08-10T21:12:49.511Z,100692.48
2022-08-10T21:16:00.020Z,100697.90
2022-08-10T21:19:24.665Z,100701.39
2022-08-10T21:22:35.376Z,100697.90
2022-08-10T21:26:09.661Z,100694.26
2022-08-10T21:29:42.140Z,100694.91
2022-08-10T21:33:26.118Z,100691.43
2022-08-10T21:36:43.220Z,100695.34
2022-08-10T21:40:32.194Z,100697.58
2022-08-10T21:44:21.970Z,100702.02
2022-08-10T21:48:33.915Z,100702.02
2022-08-10T21:52:22.123Z,100707.45
2022-08-10T21:56:14.594Z,100706.50
2022-08-10T21:59:49.521Z,100710.13
2022-08-10T22:03:21.659Z,100713.31
2022-08-10T22:06:52.617Z,100712.30
2022-08-10T22:10:17.543Z,100705.25
2022-08-10T22:13:39.242Z,100703.23
2022-08-10T22:21:04.392Z,100700.45
2022-08-10T22:24:44.007Z,100694.95
2022-08-10T22:28:12.359Z,100697.02
2022-08-10T22:31:25.965Z,100701.37
2022-08-10T22:31:53.191Z,100692.58
2022-08-10T22:35:30.545Z,100695.89
2022-08-10T22:40:07.724Z,100694.69
2022-08-10T22:43:36.219Z,100695.55
2022-08-10T22:47:02.731Z,100694.63
2022-08-10T22:50:07.813Z,100693.44
2022-08-10T22:53:18.496Z,100691.52
2022-08-10T22:56:40.403Z,100691.48
2022-08-10T22:59:43.477Z,100696.81
2022-08-10T23:03:02.981Z,100693.09
2022-08-10T23:06:14.972Z,100698.45
2022-08-10T23:09:21.985Z,100700.88
2022-08-10T23:12:34.893Z,100705.15
2022-08-10T23:16:01.487Z,100703.77
2022-08-10T23:19:27.284Z,100703.30
2022-08-10T23:22:47.818Z,100704.17
2022-08-10T23:25:57.106Z,100708.56
2022-08-10T23:29:11.653Z,100715.58
2022-08-10T23:32:16.624Z,100712.06
2022-08-10T23:36:29.660Z,100717.66
2022-08-10T23:38:54.814Z,100716.45
2022-08-10T23:42:17.825Z,100714.59
2022-08-10T23:45:26.756Z,100713.02
2022-08-10T23:48:36.101Z,100711.50
2022-08-10T23:51:55.783Z,100708.67
2022-08-10T23:55:05.230Z,100708.00
2022-08-10T23:58:31.658Z,100711.48
